Terminal Aerodrome Forecast
Issued by NWS

Home | Current Version | Previous Version | Text Only | Print | Product List | Glossary On
Versions: 1 2 3 4 5 6 7 8 9 10 11 12 13 14 15 16 17 18 19 20 21 22 23 24 25 26 27
000
FTUS41 KCAR 280541
TAFFVE
TAF
KFVE 280541Z 2806/2906 12005KT 1/2SM FG VV002
     FM281500 16008KT 5SM -DZ BR OVC008
     FM281800 19008KT P6SM BKN015
     FM282000 22010KT P6SM SCT030
     FM290200 25009KT P6SM SKC=

USA.gov is the U.S. government's official web portal to all federal, state and local government web resources and services.